Homer, Minnesota
Current Conditions -  °F | °C
As of 3:14 PM on Thursday 23 Oct 2014 (Local Time) from KONA Reporting Station
Overcast Overcast  
Wind Chill: 54°   Ceiling: 700
Heat Index: 54°   Visibility: 7mi
Dew Point: 50°   Wind: 0mph
Humidity: 88%   Direction: NA
Pressure: 30.01"   Gusts: NA
Location:  44.02°N, 91.56°W
Report Text: KONA 232014Z AUTO 00000KT 7SM OVC007 12/10 A3001 RMK AO2
Loading
Personal Weather Stations






























Interactive Weather Map
Tropical Storm Tracking
New forecast layout! Learn more

10-Day Weather Forecast

Advertisements
Track Severe Weather on mobile